KJFK

John F Kennedy International  Airport

New York, New York, USA

KJFK 191851Z 31026G34KT 10SM BKN050 11/M01 A2951 RMK AO2 PK WND 31035/1754 SLP992 T01061006

Observed Flight Rules
Nov-19 @ 18:51 UTC (57 minutes ago)
 
Visual Flight Rules
Wind Visibility Clouds
310° at 26 knots
 Gusting to 34 knots
10 miles
  • Broken at 5,000' AGL
Temperatures Readings
Current 11°C / 52°F
Dewpoint -1°C / 30°F
Humidity 44%
Altimeter 29.51" Hg
Pressure 999.2 hPa
Elevation 9
Observed Flight Rules
Nov-19 @ 18:51 UTC
(57 minutes ago)
 
VFR
Wind Visibility
310° at 26 knots
 Gusting to 34 knots
10 miles
Clouds
  • Broken at 5,000' AGL
Temperature Dewpoint
11°C / 52°F -1°C / 30°F
Humidity Altimeter Pressure
44% 29.51" Hg 999.2 hPa